Time;durP1;ratioP1;P1;durP2;ratioP2;P2;SDS_P1;SDS_P2;PMS_P1;PMS_P2;Temp;Humidity;BMP_temperature;BMP_pressure;BME280_temperature;BME280_humidity;BME280_pressure;Samples;Min_cycle;Max_cycle;Signal;HPM_P1;HPM_P2
2023/12/03 00:00:48;;;;;;;50.00;19.03;;;4.50;99.90;;;;;;5053872;28;20770;-80
2023/12/03 00:03:20;;;;;;;38.03;14.93;;;4.50;99.90;;;;;;5031562;28;20202;-79
2023/12/03 00:05:50;;;;;;;72.10;22.47;;;4.50;99.90;;;;;;5053693;28;20243;-78
2023/12/03 00:15:24;;;;;;;46.47;18.17;;;6.40;99.90;;;;;;4910195;28;20218;-78
2023/12/03 00:20:55;;;;;;;44.87;16.30;;;4.40;99.90;;;;;;5012181;28;20620;-78
2023/12/03 00:23:23;;;;;;;48.10;16.43;;;4.70;99.90;;;;;;5033306;28;20198;-77
2023/12/03 00:25:54;;;;;;;93.00;28.67;;;4.40;99.90;;;;;;5031581;28;20282;-77
2023/12/03 00:31:24;;;;;;;83.70;27.43;;;4.30;99.90;;;;;;5036597;28;20206;-82
2023/12/03 00:37:23;;;;;;;55.93;20.40;;;5.10;99.90;;;;;;5035825;28;20293;-83
2023/12/03 00:44:26;;;;;;;;;;;;;;;;;;;;;
2023/12/03 00:47:04;;;;;;;83.00;25.57;;;4.70;99.90;;;;;;4993658;28;20972;-85
2023/12/03 00:50:02;;;;;;;62.73;21.80;;;4.70;99.90;;;;;;5048669;28;20242;-85
2023/12/03 00:52:31;;;;;;;52.27;17.93;;;4.70;99.90;;;;;;5034686;28;20238;-76
2023/12/03 00:55:04;;;;;;;51.70;18.80;;;4.60;99.90;;;;;;5033499;28;20209;-77
2023/12/03 00:57:44;;;;;;;55.40;18.00;;;4.80;99.90;;;;;;5033459;28;20206;-77
2023/12/03 01:00:13;;;;;;;66.10;23.23;;;4.80;99.90;;;;;;5048123;28;20246;-76
2023/12/03 01:02:45;;;;;;;59.73;21.13;;;4.10;99.90;;;;;;5034316;28;20210;-78
2023/12/03 01:05:38;;;;;;;64.83;22.47;;;4.80;99.90;;;;;;5052223;28;20187;-77
2023/12/03 01:08:36;;;;;;;68.33;22.77;;;4.30;99.90;;;;;;5026848;28;20225;-80
2023/12/03 01:11:08;;;;;;;50.93;18.20;;;6.30;99.90;;;;;;5051611;28;20190;-80
2023/12/03 01:13:35;;;;;;;41.97;16.10;;;5.00;99.90;;;;;;5034608;28;20223;-80
2023/12/03 01:16:18;;;;;;;43.37;16.07;;;4.70;99.90;;;;;;5034792;28;20198;-77
2023/12/03 01:19:15;;;;;;;43.33;16.10;;;4.80;99.90;;;;;;5049342;28;20656;-83
2023/12/03 01:25:26;;;;;;;51.10;17.50;;;4.90;99.90;;;;;;5030003;28;20540;-79
2023/12/03 01:27:56;;;;;;;49.83;17.30;;;4.80;99.90;;;;;;5034051;28;20289;-79
2023/12/03 01:30:23;;;;;;;55.77;19.47;;;4.80;99.90;;;;;;5034747;28;20209;-80
2023/12/03 01:32:50;;;;;;;70.17;23.50;;;4.80;99.90;;;;;;5031300;28;20207;-81
2023/12/03 01:35:21;;;;;;;61.40;21.37;;;4.80;99.90;;;;;;5050091;28;20257;-83
2023/12/03 01:37:52;;;;;;;57.13;19.27;;;4.80;99.90;;;;;;5052195;28;20205;-80
2023/12/03 01:40:29;;;;;;;54.90;19.23;;;6.10;99.90;;;;;;5034586;28;20778;-79
2023/12/03 01:43:04;;;;;;;55.47;19.70;;;4.90;99.90;;;;;;5053205;28;20201;-80
2023/12/03 01:45:34;;;;;;;64.03;20.50;;;5.00;99.90;;;;;;5028055;28;20204;-80
2023/12/03 01:48:02;;;;;;;60.70;21.07;;;5.00;99.90;;;;;;5051324;28;20231;-80
2023/12/03 01:50:36;;;;;;;47.93;17.20;;;4.90;99.90;;;;;;5015340;28;20202;-80
2023/12/03 01:53:07;;;;;;;45.57;17.53;;;5.10;99.90;;;;;;5051753;28;20222;-80
2023/12/03 01:55:36;;;;;;;42.90;15.57;;;5.00;99.90;;;;;;5034184;28;20206;-80
2023/12/03 01:58:06;;;;;;;44.00;15.87;;;4.90;99.90;;;;;;5034270;28;20237;-79
2023/12/03 02:00:36;;;;;;;42.80;14.83;;;5.10;99.90;;;;;;5027324;28;20238;-80
2023/12/03 02:03:10;;;;;;;28.87;11.20;;;5.00;99.90;;;;;;5026261;28;20202;-81
2023/12/03 02:05:37;;;;;;;27.10;10.67;;;4.90;99.90;;;;;;5028785;28;20220;-75
2023/12/03 02:08:12;;;;;;;27.33;10.23;;;4.90;99.90;;;;;;5031645;28;20657;-81
2023/12/03 02:10:50;;;;;;;25.23;10.07;;;5.40;99.90;;;;;;5027463;28;20289;-81
2023/12/03 02:13:18;;;;;;;22.23;9.70;;;5.60;99.90;;;;;;5031014;28;20206;-81
2023/12/03 02:15:47;;;;;;;18.67;8.33;;;5.40;99.90;;;;;;5028058;28;20608;-81
2023/12/03 02:18:21;;;;;;;19.43;8.20;;;5.10;99.90;;;;;;5031994;28;20194;-85
2023/12/03 02:20:48;;;;;;;20.53;7.73;;;5.00;99.90;;;;;;5031587;28;20261;-78
2023/12/03 02:23:18;;;;;;;16.63;7.00;;;5.00;99.90;;;;;;5026651;28;20197;-78
2023/12/03 02:25:47;;;;;;;13.30;6.20;;;5.00;99.90;;;;;;5025055;28;20267;-77
2023/12/03 02:28:20;;;;;;;10.87;5.73;;;5.00;99.90;;;;;;5030590;28;20217;-83
2023/12/03 02:30:50;;;;;;;11.33;5.60;;;5.00;99.90;;;;;;5030248;28;20214;-84
2023/12/03 02:33:20;;;;;;;10.50;5.13;;;5.00;99.90;;;;;;5031665;28;20213;-84
2023/12/03 02:35:50;;;;;;;9.00;4.73;;;5.00;99.90;;;;;;5027329;28;20207;-82
2023/12/03 02:38:26;;;;;;;9.20;4.93;;;5.00;99.90;;;;;;5030547;28;20214;-82
2023/12/03 02:40:54;;;;;;;9.57;4.67;;;5.00;99.90;;;;;;5026989;28;20222;-83
2023/12/03 02:43:21;;;;;;;8.80;4.67;;;5.00;99.90;;;;;;5030892;28;20257;-78
2023/12/03 02:45:49;;;;;;;9.87;4.67;;;5.10;99.90;;;;;;5030312;28;20195;-77
2023/12/03 02:48:16;;;;;;;10.97;5.83;;;5.10;99.90;;;;;;5030117;28;20203;-79
2023/12/03 02:50:43;;;;;;;12.23;6.10;;;5.10;99.90;;;;;;5029977;28;20204;-78
2023/12/03 02:53:11;;;;;;;10.70;5.33;;;5.10;99.90;;;;;;5023014;28;20650;-78
2023/12/03 02:55:41;;;;;;;8.93;4.90;;;5.10;99.90;;;;;;5029401;28;20652;-77
2023/12/03 02:58:08;;;;;;;8.93;4.87;;;5.10;99.90;;;;;;5029540;28;20238;-76
2023/12/03 03:00:36;;;;;;;6.83;4.60;;;5.10;99.90;;;;;;5033140;28;20318;-77
2023/12/03 03:03:09;;;;;;;6.00;3.73;;;5.00;99.90;;;;;;5018129;28;20226;-78
2023/12/03 03:05:39;;;;;;;6.67;4.07;;;5.00;99.90;;;;;;5022401;28;20555;-77
2023/12/03 03:08:06;;;;;;;4.13;3.00;;;5.00;99.90;;;;;;5031878;28;20560;-77
2023/12/03 03:10:33;;;;;;;4.10;2.97;;;5.00;99.90;;;;;;5032789;28;20196;-79
2023/12/03 03:13:02;;;;;;;4.70;3.20;;;4.90;99.90;;;;;;5048788;28;20233;-79
2023/12/03 03:15:30;;;;;;;3.63;2.77;;;5.00;99.90;;;;;;5034213;28;20194;-77
2023/12/03 03:18:08;;;;;;;3.80;2.60;;;4.90;99.90;;;;;;5050054;28;20532;-77
2023/12/03 03:20:38;;;;;;;4.90;3.00;;;5.00;99.90;;;;;;5052440;28;20324;-78
2023/12/03 03:23:09;;;;;;;3.60;2.90;;;5.00;99.90;;;;;;5036224;28;20220;-77
2023/12/03 03:25:39;;;;;;;3.23;2.67;;;5.00;99.90;;;;;;5035982;28;21089;-78
2023/12/03 03:28:12;;;;;;;4.10;3.10;;;5.00;99.90;;;;;;5055116;28;20534;-80
2023/12/03 03:30:40;;;;;;;2.97;2.57;;;5.20;99.90;;;;;;5037728;28;20187;-81
2023/12/03 03:33:09;;;;;;;3.30;2.60;;;5.10;99.90;;;;;;5055028;28;20227;-80
2023/12/03 03:35:36;;;;;;;3.50;2.70;;;5.10;99.90;;;;;;5030867;28;20253;-79
2023/12/03 03:38:03;;;;;;;2.10;1.90;;;5.10;99.90;;;;;;5046782;28;20578;-80
2023/12/03 03:40:33;;;;;;;2.67;2.40;;;5.10;99.90;;;;;;5035655;28;20254;-79
2023/12/03 03:43:00;;;;;;;3.80;2.80;;;5.10;99.90;;;;;;5054734;28;20627;-79
2023/12/03 03:45:28;;;;;;;2.57;2.37;;;5.10;99.90;;;;;;5054644;28;20281;-79
2023/12/03 03:48:01;;;;;;;2.63;2.43;;;5.10;99.90;;;;;;5054757;28;20634;-79
2023/12/03 03:50:29;;;;;;;2.73;2.40;;;5.10;99.90;;;;;;5036278;28;20203;-79
2023/12/03 03:52:56;;;;;;;3.30;2.40;;;5.10;99.90;;;;;;5045617;28;20200;-80
2023/12/03 03:55:28;;;;;;;2.47;2.27;;;5.20;99.90;;;;;;5036071;28;20207;-79
2023/12/03 03:57:55;;;;;;;3.23;2.20;;;5.30;99.90;;;;;;5025761;28;20234;-72
2023/12/03 04:00:22;;;;;;;2.87;2.57;;;5.20;99.90;;;;;;5045776;28;21176;-72
2023/12/03 04:02:51;;;;;;;2.50;2.30;;;5.20;99.90;;;;;;5054170;28;20207;-79
2023/12/03 04:05:18;;;;;;;1.90;1.80;;;5.20;99.90;;;;;;5054286;28;20199;-80
2023/12/03 04:07:46;;;;;;;2.40;2.20;;;5.20;99.90;;;;;;5031497;28;20320;-79
2023/12/03 04:10:13;;;;;;;2.30;2.10;;;5.20;99.90;;;;;;5036582;28;20670;-78
2023/12/03 04:12:44;;;;;;;2.87;2.20;;;5.20;99.90;;;;;;5023674;28;20261;-78
2023/12/03 04:15:14;;;;;;;2.53;1.80;;;5.20;99.90;;;;;;5052231;28;20273;-79
2023/12/03 04:17:43;;;;;;;2.40;1.83;;;5.20;99.90;;;;;;5053839;28;20198;-79
2023/12/03 04:20:13;;;;;;;1.70;1.60;;;5.10;99.90;;;;;;5035065;28;20206;-78
2023/12/03 04:22:43;;;;;;;1.53;1.43;;;5.10;99.90;;;;;;5046751;28;20206;-79
2023/12/03 04:25:11;;;;;;;1.80;1.70;;;5.10;99.90;;;;;;5033530;28;20254;-78
2023/12/03 04:27:38;;;;;;;1.80;1.70;;;5.20;99.90;;;;;;5031577;28;20648;-79
2023/12/03 04:30:12;;;;;;;1.50;1.40;;;5.00;99.90;;;;;;5054313;28;20205;-77
2023/12/03 04:32:47;;;;;;;1.50;1.40;;;5.00;99.90;;;;;;5035555;28;20225;-78
2023/12/03 04:35:21;;;;;;;1.50;1.40;;;5.20;99.90;;;;;;5035458;28;20198;-77
2023/12/03 04:37:54;;;;;;;1.50;1.40;;;5.00;99.90;;;;;;5047089;28;20198;-83
2023/12/03 04:40:22;;;;;;;1.33;1.20;;;5.00;99.90;;;;;;5041580;28;20262;-83
2023/12/03 04:42:51;;;;;;;2.57;1.53;;;4.90;99.90;;;;;;5036373;28;20405;-84
2023/12/03 04:45:19;;;;;;;3.83;1.83;;;4.90;99.90;;;;;;5054511;28;20657;-83
2023/12/03 04:47:46;;;;;;;2.37;1.67;;;5.70;99.90;;;;;;5053980;28;20379;-82
2023/12/03 04:50:13;;;;;;;1.57;1.47;;;4.90;99.90;;;;;;5053803;28;20293;-78
2023/12/03 04:52:44;;;;;;;1.73;1.60;;;4.90;99.90;;;;;;5050888;28;20196;-82
2023/12/03 05:02:53;;;;;;;1.73;1.53;;;4.80;99.90;;;;;;5022746;28;20343;-79
2023/12/03 05:05:21;;;;;;;1.80;1.70;;;4.80;99.90;;;;;;5019376;28;20285;-85
2023/12/03 05:07:50;;;;;;;2.13;1.60;;;4.90;99.90;;;;;;5050831;28;20199;-77
2023/12/03 05:10:23;;;;;;;2.97;1.67;;;4.10;99.90;;;;;;5053546;28;20198;-78
2023/12/03 05:12:50;;;;;;;1.60;1.50;;;4.70;99.90;;;;;;5035053;28;20206;-79
2023/12/03 05:15:17;;;;;;;1.80;1.70;;;4.60;99.90;;;;;;5032476;28;20211;-79
2023/12/03 05:17:44;;;;;;;1.97;1.87;;;4.70;99.90;;;;;;5052941;28;20203;-79
2023/12/03 05:20:12;;;;;;;1.93;1.70;;;4.70;99.90;;;;;;5052950;28;20220;-78
2023/12/03 05:22:39;;;;;;;1.47;1.37;;;4.70;99.90;;;;;;5051850;28;20244;-79
2023/12/03 05:25:10;;;;;;;1.33;1.23;;;4.60;99.90;;;;;;5053353;28;20630;-79
2023/12/03 05:27:40;;;;;;;1.50;1.40;;;4.60;99.90;;;;;;5052208;28;20200;-79
2023/12/03 05:30:11;;;;;;;1.60;1.50;;;4.60;99.90;;;;;;5049780;28;20687;-79
2023/12/03 05:32:38;;;;;;;1.80;1.70;;;4.60;99.90;;;;;;5052463;28;20187;-78
2023/12/03 05:35:06;;;;;;;1.70;1.60;;;4.60;99.90;;;;;;5053148;28;20218;-79
2023/12/03 05:37:33;;;;;;;1.77;1.40;;;5.40;99.90;;;;;;5050927;28;20680;-78
2023/12/03 05:40:04;;;;;;;1.53;1.43;;;4.60;99.90;;;;;;5053787;28;20205;-78
2023/12/03 05:42:32;;;;;;;2.83;1.57;;;4.50;99.90;;;;;;5033560;28;20206;-77
2023/12/03 05:45:03;;;;;;;4.90;1.93;;;4.50;99.90;;;;;;5034555;28;20201;-77
2023/12/03 05:47:33;;;;;;;1.90;1.73;;;4.50;99.90;;;;;;5052274;28;20194;-79
2023/12/03 05:50:06;;;;;;;2.20;1.63;;;4.50;99.90;;;;;;5052092;28;20593;-78
2023/12/03 05:52:33;;;;;;;1.90;1.70;;;4.50;99.90;;;;;;5027780;28;20265;-78
2023/12/03 05:55:00;;;;;;;1.60;1.50;;;4.50;99.90;;;;;;5021078;28;21867;-78
2023/12/03 05:57:29;;;;;;;2.00;1.83;;;4.40;99.90;;;;;;5033725;28;20209;-79
2023/12/03 05:59:58;;;;;;;2.63;1.73;;;4.40;99.90;;;;;;5052952;28;20624;-79
2023/12/03 06:02:26;;;;;;;1.40;1.30;;;4.40;99.90;;;;;;5049334;28;20223;-78
2023/12/03 06:04:58;;;;;;;1.93;1.40;;;4.30;99.90;;;;;;5027967;28;20210;-78
2023/12/03 06:07:28;;;;;;;1.50;1.40;;;4.30;99.90;;;;;;5051048;28;20197;-78
2023/12/03 06:09:55;;;;;;;2.10;1.90;;;4.30;99.90;;;;;;5052809;28;20194;-77
2023/12/03 06:12:24;;;;;;;2.03;1.40;;;4.20;99.90;;;;;;5051349;28;20665;-78
2023/12/03 06:14:51;;;;;;;1.70;1.60;;;4.20;99.90;;;;;;5030890;28;20545;-77
2023/12/03 06:17:20;;;;;;;1.77;1.67;;;4.20;99.90;;;;;;5031994;28;20201;-77
2023/12/03 06:19:47;;;;;;;2.40;1.60;;;4.20;99.90;;;;;;5029421;28;20233;-76
2023/12/03 06:22:16;;;;;;;2.23;1.73;;;4.10;99.90;;;;;;5050357;28;20210;-76
2023/12/03 06:24:43;;;;;;;1.90;1.80;;;4.10;99.90;;;;;;5033912;28;20671;-76
2023/12/03 06:27:10;;;;;;;2.40;1.67;;;4.60;99.90;;;;;;5050277;28;20189;-76
2023/12/03 06:29:40;;;;;;;1.63;1.53;;;4.10;99.90;;;;;;5033476;28;20637;-75
2023/12/03 06:32:08;;;;;;;1.53;1.43;;;4.00;99.90;;;;;;5047398;28;20198;-78
2023/12/03 06:34:37;;;;;;;3.93;1.87;;;4.00;99.90;;;;;;5050985;28;20208;-75
2023/12/03 06:37:04;;;;;;;2.00;1.80;;;4.00;99.90;;;;;;5050403;28;20664;-76
2023/12/03 06:39:31;;;;;;;1.60;1.50;;;4.00;99.90;;;;;;5045195;28;20650;-75
2023/12/03 06:41:58;;;;;;;3.20;1.70;;;3.40;99.90;;;;;;5051780;28;20236;-79
2023/12/03 06:44:30;;;;;;;1.67;1.57;;;4.00;99.90;;;;;;5030259;28;20281;-80
2023/12/03 06:46:59;;;;;;;1.63;1.40;;;4.00;99.90;;;;;;5055407;28;20555;-79
2023/12/03 06:49:29;;;;;;;1.73;1.63;;;3.90;99.90;;;;;;5055558;28;20194;-80
2023/12/03 06:51:59;;;;;;;1.60;1.50;;;3.90;99.90;;;;;;5037568;28;20677;-80
2023/12/03 06:54:28;;;;;;;1.90;1.80;;;3.90;99.90;;;;;;5033074;28;20198;-79
2023/12/03 06:56:57;;;;;;;2.13;1.80;;;3.90;99.90;;;;;;5026835;28;20228;-78
2023/12/03 06:59:27;;;;;;;2.33;2.13;;;3.90;99.90;;;;;;5053027;28;20553;-78
2023/12/03 07:01:57;;;;;;;2.20;1.70;;;4.00;99.90;;;;;;5052994;28;20320;-81
2023/12/03 07:04:33;;;;;;;1.90;1.70;;;3.80;99.90;;;;;;5053215;28;20296;-81
2023/12/03 07:07:04;;;;;;;2.40;1.77;;;3.80;99.90;;;;;;5048871;28;20272;-80
2023/12/03 07:09:31;;;;;;;2.30;1.70;;;3.70;99.90;;;;;;5054074;28;20272;-79
2023/12/03 07:11:59;;;;;;;1.80;1.67;;;3.70;99.90;;;;;;5052691;28;20319;-80
2023/12/03 07:14:32;;;;;;;4.83;1.80;;;3.70;99.90;;;;;;5036847;28;20193;-79
2023/12/03 07:16:59;;;;;;;2.00;1.70;;;3.60;99.90;;;;;;5043341;28;20202;-79
2023/12/03 07:19:26;;;;;;;1.70;1.60;;;3.60;99.90;;;;;;5054518;28;20208;-80
2023/12/03 07:21:53;;;;;;;1.87;1.60;;;3.60;99.90;;;;;;5052966;28;20206;-80
2023/12/03 07:24:24;;;;;;;3.27;1.80;;;3.60;99.90;;;;;;5047394;28;20193;-80
2023/12/03 07:26:51;;;;;;;2.00;1.27;;;3.60;99.90;;;;;;5032007;28;20213;-80
2023/12/03 07:29:19;;;;;;;4.70;1.77;;;3.70;99.90;;;;;;5043514;28;20190;-80
2023/12/03 07:32:01;;;;;;;2.47;1.47;;;3.70;99.90;;;;;;5054665;28;20201;-81
2023/12/03 07:34:28;;;;;;;1.50;1.13;;;3.60;99.90;;;;;;5030035;28;20202;-79
2023/12/03 07:36:58;;;;;;;1.40;1.30;;;3.70;99.90;;;;;;5036908;28;20267;-80
2023/12/03 07:39:27;;;;;;;1.80;1.47;;;3.70;99.90;;;;;;5054548;28;20661;-79
2023/12/03 07:41:54;;;;;;;2.00;1.80;;;3.70;99.90;;;;;;5054120;28;20234;-80
2023/12/03 07:44:22;;;;;;;3.00;1.87;;;3.70;99.90;;;;;;5058245;28;20209;-80
2023/12/03 07:46:53;;;;;;;1.87;1.73;;;3.70;99.90;;;;;;5053953;28;20220;-79
2023/12/03 07:49:21;;;;;;;1.67;1.57;;;3.70;99.90;;;;;;5036243;28;20198;-79
2023/12/03 07:51:48;;;;;;;1.60;1.30;;;4.50;99.90;;;;;;5037168;28;20206;-80
2023/12/03 07:54:15;;;;;;;2.20;1.50;;;3.10;99.90;;;;;;5034331;28;20213;-79
2023/12/03 07:56:46;;;;;;;1.70;1.60;;;3.60;99.90;;;;;;5052351;28;20842;-79
2023/12/03 07:59:14;;;;;;;3.83;1.80;;;3.60;99.90;;;;;;5052911;28;20278;-81
2023/12/03 08:01:41;;;;;;;2.73;1.70;;;3.70;99.90;;;;;;5021996;28;20309;-77
2023/12/03 08:04:08;;;;;;;2.83;1.80;;;3.70;99.90;;;;;;5048876;28;20209;-78
2023/12/03 08:06:35;;;;;;;3.93;1.97;;;3.70;99.90;;;;;;5036676;28;20209;-78
2023/12/03 08:09:02;;;;;;;1.87;1.60;;;3.70;99.90;;;;;;5052648;28;20206;-75
2023/12/03 08:11:29;;;;;;;3.60;1.77;;;3.70;99.90;;;;;;5052905;28;20208;-73
2023/12/03 08:13:58;;;;;;;2.57;1.70;;;3.70;99.90;;;;;;5034937;28;20205;-73
2023/12/03 08:16:26;;;;;;;3.00;1.80;;;3.80;99.90;;;;;;5051999;28;20670;-73
2023/12/03 08:18:53;;;;;;;2.70;2.00;;;3.80;99.90;;;;;;5033011;28;20266;-74
2023/12/03 08:21:23;;;;;;;2.40;1.97;;;3.80;99.90;;;;;;5034544;28;20197;-81
2023/12/03 08:23:51;;;;;;;2.90;2.10;;;3.80;99.90;;;;;;5035545;28;20284;-80
2023/12/03 08:26:18;;;;;;;3.10;2.20;;;3.80;99.90;;;;;;5025617;28;20205;-76
2023/12/03 08:28:48;;;;;;;4.53;2.63;;;3.90;99.90;;;;;;5027320;28;20294;-77
2023/12/03 08:31:18;;;;;;;2.90;1.90;;;4.00;99.90;;;;;;5035181;28;20586;-75
2023/12/03 08:33:47;;;;;;;2.73;2.10;;;4.40;99.90;;;;;;5053236;28;20194;-76
2023/12/03 08:36:18;;;;;;;3.73;2.43;;;4.80;99.90;;;;;;5053536;28;20193;-76
2023/12/03 08:38:48;;;;;;;5.63;2.63;;;5.40;99.90;;;;;;5035129;28;20633;-76
2023/12/03 08:41:22;;;;;;;2.30;1.87;;;5.80;99.80;;;;;;5030348;28;20198;-77
2023/12/03 08:43:49;;;;;;;2.70;1.90;;;6.20;99.30;;;;;;5035103;28;20704;-75
2023/12/03 08:46:20;;;;;;;2.70;2.00;;;6.40;98.70;;;;;;5046958;28;20285;-79
2023/12/03 08:48:47;;;;;;;2.50;1.83;;;6.30;98.40;;;;;;5046893;28;20279;-75
2023/12/03 08:51:15;;;;;;;2.87;2.03;;;6.10;98.50;;;;;;5047412;28;20194;-74
2023/12/03 08:53:42;;;;;;;2.23;1.70;;;6.00;98.40;;;;;;5030570;28;20294;-76
2023/12/03 08:56:12;;;;;;;2.37;1.97;;;5.90;98.00;;;;;;5027186;28;20232;-75
2023/12/03 08:58:40;;;;;;;2.10;1.97;;;5.90;97.70;;;;;;5049542;28;20198;-75
2023/12/03 09:01:08;;;;;;;2.23;2.03;;;5.90;97.60;;;;;;5027938;28;20558;-76
2023/12/03 09:03:40;;;;;;;4.90;1.97;;;5.90;97.50;;;;;;5050854;28;20233;-77
2023/12/03 09:06:08;;;;;;;4.13;2.83;;;6.00;97.20;;;;;;5051877;28;20536;-73
2023/12/03 09:08:37;;;;;;;3.13;2.30;;;6.10;96.80;;;;;;5033536;28;20694;-74
2023/12/03 09:11:08;;;;;;;2.27;2.07;;;6.20;96.70;;;;;;5050926;28;20229;-77
2023/12/03 09:13:46;;;;;;;3.07;1.80;;;6.50;96.50;;;;;;5032625;28;20739;-80
2023/12/03 09:16:18;;;;;;;2.10;1.97;;;6.70;96.20;;;;;;5048758;28;20298;-81
2023/12/03 09:19:04;;;;;;;3.17;2.00;;;6.70;96.40;;;;;;5027695;28;20365;-78
2023/12/03 09:21:34;;;;;;;1.47;1.37;;;6.80;96.50;;;;;;5034688;28;20288;-71
2023/12/03 09:24:01;;;;;;;1.90;1.60;;;6.90;96.60;;;;;;5050985;28;20267;-69
2023/12/03 09:26:30;;;;;;;2.23;1.50;;;6.80;95.90;;;;;;5047128;28;20202;-70
2023/12/03 09:28:58;;;;;;;2.40;2.10;;;6.80;95.60;;;;;;5031883;28;20292;-70
2023/12/03 09:31:25;;;;;;;3.27;2.57;;;6.90;95.30;;;;;;5046440;28;20201;-70
2023/12/03 09:33:53;;;;;;;1.87;1.77;;;7.00;94.90;;;;;;5024589;28;20233;-73
2023/12/03 09:36:21;;;;;;;3.00;2.10;;;6.90;94.80;;;;;;5029181;28;20524;-74
2023/12/03 09:38:51;;;;;;;2.40;1.97;;;6.90;95.00;;;;;;5050991;28;20200;-72
2023/12/03 09:41:22;;;;;;;1.90;1.70;;;6.90;95.00;;;;;;5030718;28;20190;-69
2023/12/03 09:43:54;;;;;;;2.33;1.80;;;7.00;95.10;;;;;;5045718;28;20202;-70
2023/12/03 09:46:26;;;;;;;2.67;1.90;;;7.20;94.80;;;;;;5044129;28;20194;-71
2023/12/03 09:48:56;;;;;;;1.80;1.70;;;7.40;94.60;;;;;;5024103;28;20227;-72
2023/12/03 09:51:25;;;;;;;2.47;2.20;;;7.60;94.40;;;;;;5049134;28;20204;-72
2023/12/03 09:53:55;;;;;;;2.83;1.80;;;7.80;94.00;;;;;;5049996;28;20201;-71
2023/12/03 09:56:22;;;;;;;4.27;2.60;;;8.20;94.10;;;;;;5047444;28;20201;-71
2023/12/03 09:58:50;;;;;;;2.50;2.30;;;8.60;93.30;;;;;;5025229;28;20213;-73
2023/12/03 10:01:18;;;;;;;3.47;2.50;;;8.80;92.80;;;;;;5047012;28;20193;-71
2023/12/03 10:03:46;;;;;;;4.50;2.23;;;8.80;92.40;;;;;;5026495;28;20233;-72
2023/12/03 10:06:16;;;;;;;3.83;2.33;;;8.70;92.20;;;;;;5048872;28;20196;-73
2023/12/03 10:08:43;;;;;;;3.87;2.50;;;8.60;92.30;;;;;;5031265;28;20202;-72
2023/12/03 10:11:17;;;;;;;5.87;3.20;;;8.50;92.30;;;;;;5030140;28;20315;-72
2023/12/03 10:13:50;;;;;;;5.33;3.20;;;8.70;91.70;;;;;;5047141;28;20304;-74
2023/12/03 10:16:19;;;;;;;5.53;3.17;;;8.90;91.00;;;;;;5048267;28;20190;-70
2023/12/03 10:18:47;;;;;;;4.63;2.73;;;8.80;90.70;;;;;;5026816;28;20304;-72
2023/12/03 10:21:16;;;;;;;5.90;3.23;;;8.50;90.60;;;;;;5042448;28;20217;-75
2023/12/03 10:23:57;;;;;;;4.10;3.00;;;8.30;90.70;;;;;;5024336;28;20644;-72
2023/12/03 10:26:24;;;;;;;4.73;3.10;;;7.90;90.90;;;;;;5025422;28;20194;-71
2023/12/03 10:28:52;;;;;;;5.00;3.00;;;7.90;91.10;;;;;;5018346;28;20240;-72
2023/12/03 10:31:30;;;;;;;5.57;3.60;;;8.00;91.30;;;;;;5044285;28;20198;-71
2023/12/03 10:33:57;;;;;;;4.77;3.57;;;8.10;91.30;;;;;;5028567;28;20657;-72
2023/12/03 10:36:30;;;;;;;4.53;3.50;;;8.30;91.20;;;;;;5047599;28;20198;-71
2023/12/03 10:38:58;;;;;;;4.13;2.87;;;8.30;90.90;;;;;;5045804;28;20193;-71
2023/12/03 10:41:25;;;;;;;4.53;3.10;;;8.20;91.00;;;;;;5025901;28;20234;-71
2023/12/03 10:43:52;;;;;;;6.37;4.07;;;8.00;91.10;;;;;;5028735;28;20271;-71
2023/12/03 10:46:19;;;;;;;5.17;3.53;;;7.80;91.10;;;;;;5020519;28;20255;-71
2023/12/03 10:48:47;;;;;;;6.67;3.70;;;7.60;91.20;;;;;;5041411;28;20289;-71
2023/12/03 10:51:14;;;;;;;7.10;3.77;;;7.40;91.30;;;;;;5046634;28;20202;-71
2023/12/03 10:53:45;;;;;;;8.13;4.10;;;7.30;91.50;;;;;;5041447;28;20208;-70
2023/12/03 10:56:14;;;;;;;5.83;3.43;;;7.10;91.70;;;;;;5046784;28;20641;-71
2023/12/03 10:58:41;;;;;;;6.23;3.60;;;7.00;91.80;;;;;;5046093;28;20612;-71
2023/12/03 11:01:13;;;;;;;5.63;3.70;;;6.80;91.80;;;;;;5048317;28;20194;-71
2023/12/03 11:03:53;;;;;;;5.60;3.23;;;6.70;91.90;;;;;;5025739;28;20226;-71
2023/12/03 11:06:22;;;;;;;5.80;3.60;;;6.60;92.10;;;;;;5026368;28;20190;-71
2023/12/03 11:08:54;;;;;;;4.10;2.73;;;6.50;92.30;;;;;;5026338;28;20214;-71
2023/12/03 11:11:22;;;;;;;5.63;3.43;;;6.40;92.50;;;;;;5023828;28;20192;-71
2023/12/03 11:13:57;;;;;;;4.47;3.13;;;6.40;92.70;;;;;;5024775;28;20191;-71
2023/12/03 11:16:28;;;;;;;4.27;3.10;;;6.20;92.80;;;;;;5026550;28;20248;-70
2023/12/03 11:19:03;;;;;;;3.17;2.60;;;6.50;93.10;;;;;;5023293;28;20690;-70
2023/12/03 11:21:38;;;;;;;5.50;3.50;;;6.10;93.10;;;;;;5023289;28;20557;-70
2023/12/03 11:24:34;;;;;;;5.40;3.17;;;6.10;93.30;;;;;;5003981;28;20220;-71
2023/12/03 11:27:01;;;;;;;4.50;3.00;;;6.10;93.50;;;;;;5002318;28;20552;-71
2023/12/03 11:29:48;;;;;;;6.40;3.30;;;6.10;93.60;;;;;;5025926;28;20198;-70
2023/12/03 11:32:15;;;;;;;6.00;3.70;;;6.00;93.60;;;;;;5022429;28;20272;-71
2023/12/03 11:34:42;;;;;;;5.27;3.00;;;6.00;93.70;;;;;;5029091;28;20625;-70
2023/12/03 11:37:13;;;;;;;5.87;3.77;;;5.90;93.80;;;;;;5030835;28;20245;-70
2023/12/03 11:39:56;;;;;;;5.07;3.70;;;5.90;94.00;;;;;;5020871;28;20215;-71
2023/12/03 11:42:25;;;;;;;3.73;3.10;;;5.90;94.10;;;;;;5030192;28;20193;-70
2023/12/03 11:45:23;;;;;;;5.10;2.97;;;5.80;94.20;;;;;;5030143;28;20304;-69
2023/12/03 11:48:10;;;;;;;6.03;3.40;;;5.70;94.30;;;;;;5024887;28;20190;-70
2023/12/03 11:50:42;;;;;;;7.97;3.80;;;5.60;94.50;;;;;;5025137;28;20246;-71
2023/12/03 11:53:11;;;;;;;5.50;3.80;;;5.60;94.60;;;;;;5027932;28;20183;-70
2023/12/03 11:55:43;;;;;;;6.23;3.67;;;5.60;94.70;;;;;;5026274;28;20211;-70
2023/12/03 11:58:12;;;;;;;5.50;3.30;;;5.50;94.70;;;;;;5031615;28;20219;-70
2023/12/03 12:00:40;;;;;;;5.10;3.63;;;5.40;94.90;;;;;;5024344;28;20197;-71
2023/12/03 12:03:09;;;;;;;5.27;3.57;;;5.30;95.00;;;;;;5026272;28;20260;-70
2023/12/03 12:05:43;;;;;;;4.23;3.23;;;5.30;95.20;;;;;;5008654;28;20335;-71
2023/12/03 12:08:18;;;;;;;7.47;4.23;;;5.30;95.30;;;;;;4994220;28;20238;-70
2023/12/03 12:10:46;;;;;;;6.73;3.90;;;5.30;95.50;;;;;;5008230;28;20276;-70
2023/12/03 12:13:13;;;;;;;7.30;3.60;;;5.40;95.60;;;;;;5008771;28;20216;-71
2023/12/03 12:15:43;;;;;;;6.37;3.87;;;5.30;95.70;;;;;;5009810;28;20197;-71
2023/12/03 12:18:13;;;;;;;5.23;3.40;;;5.40;95.80;;;;;;5012379;28;20197;-70
2023/12/03 12:20:40;;;;;;;5.30;3.53;;;5.40;95.80;;;;;;5001593;28;20201;-71
2023/12/03 12:23:07;;;;;;;4.80;3.60;;;5.40;95.90;;;;;;5000632;28;20209;-70
2023/12/03 12:25:34;;;;;;;6.37;3.73;;;5.40;95.90;;;;;;5010520;28;20199;-70
2023/12/03 12:28:06;;;;;;;6.80;3.57;;;5.40;96.10;;;;;;5006246;28;20202;-71
2023/12/03 12:30:33;;;;;;;5.17;3.90;;;5.40;96.20;;;;;;5004985;28;20200;-70
2023/12/03 12:33:02;;;;;;;5.53;4.00;;;5.30;96.20;;;;;;5011871;28;20228;-71
2023/12/03 12:35:32;;;;;;;6.33;4.37;;;5.30;96.40;;;;;;5008107;28;20578;-71
2023/12/03 12:38:01;;;;;;;5.50;3.93;;;5.30;96.40;;;;;;5006990;28;20201;-70
2023/12/03 12:40:30;;;;;;;7.03;4.67;;;5.20;96.40;;;;;;5010098;28;20224;-70
2023/12/03 12:43:06;;;;;;;5.00;3.53;;;5.30;96.60;;;;;;5011439;28;20233;-71
2023/12/03 12:45:36;;;;;;;5.43;3.60;;;5.20;96.60;;;;;;5006212;28;20199;-70
2023/12/03 12:48:03;;;;;;;3.33;3.03;;;5.20;96.70;;;;;;5009577;28;20212;-71
2023/12/03 12:50:39;;;;;;;8.13;3.70;;;5.10;96.80;;;;;;4993795;28;20286;-70
2023/12/03 12:53:08;;;;;;;6.57;3.83;;;5.10;97.10;;;;;;5004226;28;20694;-71
2023/12/03 12:55:36;;;;;;;5.70;3.67;;;5.10;97.10;;;;;;4999508;28;20256;-70
2023/12/03 12:58:05;;;;;;;4.47;3.37;;;5.10;97.20;;;;;;5012441;28;20679;-71
2023/12/03 13:00:35;;;;;;;4.33;3.47;;;5.10;97.40;;;;;;4993607;28;20259;-70
2023/12/03 13:03:05;;;;;;;5.37;3.57;;;5.00;97.40;;;;;;5019154;28;20237;-71
2023/12/03 13:05:32;;;;;;;6.60;3.80;;;5.00;97.60;;;;;;5022540;28;20603;-71
2023/12/03 13:07:59;;;;;;;5.67;3.93;;;5.00;97.60;;;;;;5022541;28;20210;-71
2023/12/03 13:10:31;;;;;;;4.60;3.20;;;5.10;97.70;;;;;;5022824;28;20308;-70
2023/12/03 13:12:58;;;;;;;6.17;3.80;;;5.10;97.80;;;;;;5049612;28;20282;-70
2023/12/03 13:15:25;;;;;;;5.30;3.50;;;5.10;97.90;;;;;;5050837;28;20195;-71
2023/12/03 13:17:55;;;;;;;5.13;3.23;;;5.00;97.90;;;;;;5050114;28;20204;-70
2023/12/03 13:20:22;;;;;;;6.43;3.60;;;5.00;98.10;;;;;;5031767;28;20620;-71
2023/12/03 13:22:53;;;;;;;5.30;3.57;;;5.00;98.30;;;;;;5049610;28;20264;-70
2023/12/03 13:25:21;;;;;;;5.20;3.33;;;5.00;98.40;;;;;;5050220;28;20210;-70
2023/12/03 13:27:48;;;;;;;6.50;3.33;;;5.00;98.50;;;;;;5050031;28;20208;-70
2023/12/03 13:30:15;;;;;;;4.17;3.07;;;4.90;98.50;;;;;;5032779;28;20669;-72
2023/12/03 13:32:43;;;;;;;5.47;3.40;;;4.80;98.90;;;;;;5049123;28;20201;-70
2023/12/03 13:35:13;;;;;;;4.70;3.63;;;4.80;99.00;;;;;;5032494;28;20229;-70
2023/12/03 13:37:40;;;;;;;6.63;3.90;;;4.80;99.20;;;;;;5049093;28;20194;-71
2023/12/03 13:40:08;;;;;;;6.90;3.97;;;4.80;99.30;;;;;;5050207;28;20206;-71
2023/12/03 13:42:37;;;;;;;9.23;4.00;;;4.80;99.50;;;;;;5031820;28;20207;-70